Time;durP1;ratioP1;P1;durP2;ratioP2;P2;SDS_P1;SDS_P2;PMS_P1;PMS_P2;Temp;Humidity;BMP_temperature;BMP_pressure;BME280_temperature;BME280_humidity;BME280_pressure;Samples;Min_cycle;Max_cycle;Signal;HPM_P1;HPM_P2
2023/01/19 00:01:14;;;;;;;;;;;;;;;0.94;81.00;99537.90;105009;1294;61896;-74
2023/01/19 00:03:40;;;;;;;;;;;;;;;0.96;80.94;99537.91;105038;1289;61268;-74
2023/01/19 00:06:06;;;;;;;;;;;;;;;0.95;80.92;99538.59;106179;1288;59365;-74
2023/01/19 00:08:31;;;;;;;;;;;;;;;0.94;80.88;99534.68;106103;1289;71444;-74
2023/01/19 00:10:56;;;;;;;;;;;;;;;0.95;80.91;99535.02;105405;1288;61257;-73
2023/01/19 00:13:22;;;;;;;;;;;;;;;0.95;80.94;99539.43;105023;1294;61282;-73
2023/01/19 00:15:47;;;;;;;;;;;;;;;0.96;81.02;99547.92;105214;1286;59479;-73
2023/01/19 00:18:12;;;;;;;;;;;;;;;0.97;80.94;99542.50;105237;1291;61311;-73
2023/01/19 00:20:39;;;;;;;;;;;;;;;0.95;80.98;99540.11;105042;1294;61289;-74
2023/01/19 00:23:06;;;;;;;;;;;;;;;0.95;81.02;99543.67;105051;1289;61226;-74
2023/01/19 00:25:31;;;;;;;;;;;;;;;0.96;81.02;99549.62;105087;1291;59437;-74
2023/01/19 00:27:57;;;;;;;;;;;;;;;0.98;81.05;99552.34;105064;1288;59878;-74
2023/01/19 00:30:22;;;;;;;;;;;;;;;0.98;81.09;99550.99;105110;1289;61353;-74
2023/01/19 00:32:48;;;;;;;;;;;;;;;0.99;81.05;99549.46;105042;1290;59715;-74
2023/01/19 00:35:13;;;;;;;;;;;;;;;1.01;81.03;99549.98;105068;1288;61280;-74
2023/01/19 00:37:39;;;;;;;;;;;;;;;1.02;81.03;99552.88;105065;1290;66104;-74
2023/01/19 00:40:04;;;;;;;;;;;;;;;1.00;81.03;99556.26;105006;1294;61282;-74
2023/01/19 00:42:40;;;;;;;;;;;;;;;0.98;81.02;99564.05;105160;1288;61229;-74
2023/01/19 00:45:11;;;;;;;;;;;;;;;0.97;81.01;99571.69;105078;1294;59529;-74
2023/01/19 00:47:38;;;;;;;;;;;;;;;0.98;81.05;99574.57;105058;1288;74608;-74
2023/01/19 00:50:03;;;;;;;;;;;;;;;0.98;81.08;99576.27;105044;1288;69100;-73
2023/01/19 00:52:28;;;;;;;;;;;;;;;0.99;81.05;99582.21;105071;1291;61351;-73
2023/01/19 00:54:54;;;;;;;;;;;;;;;0.98;81.06;99585.61;104973;1289;59860;-73
2023/01/19 00:57:19;;;;;;;;;;;;;;;0.99;81.13;99591.55;104972;1289;61236;-74
2023/01/19 00:59:44;;;;;;;;;;;;;;;1.01;81.09;99595.11;105057;1288;61310;-74
2023/01/19 01:02:10;;;;;;;;;;;;;;;1.02;81.13;99597.34;105062;1292;61296;-74
2023/01/19 01:04:36;;;;;;;;;;;;;;;1.02;81.11;99597.00;105069;1289;63763;-74
2023/01/19 01:07:03;;;;;;;;;;;;;;;1.03;81.15;99598.52;105000;1291;61262;-74
2023/01/19 01:09:28;;;;;;;;;;;;;;;1.04;81.11;99603.77;106142;1288;59302;-74
2023/01/19 01:11:53;;;;;;;;;;;;;;;1.05;81.18;99607.34;105582;1287;58835;-74
2023/01/19 01:14:19;;;;;;;;;;;;;;;1.07;81.16;99602.93;105067;1292;61298;-73
2023/01/19 01:16:44;;;;;;;;;;;;;;;1.08;81.17;99599.05;105026;1293;61227;-74
2023/01/19 01:19:09;;;;;;;;;;;;;;;1.10;81.15;99598.54;105031;1289;61305;-75
2023/01/19 01:21:36;;;;;;;;;;;;;;;1.10;81.16;99595.66;105122;1290;61228;-74
2023/01/19 01:24:01;;;;;;;;;;;;;;;1.11;81.12;99593.63;105122;1289;60197;-74
2023/01/19 01:26:27;;;;;;;;;;;;;;;1.11;81.14;99591.92;105093;1289;61396;-74
2023/01/19 01:28:52;;;;;;;;;;;;;;;1.12;81.08;99587.86;105144;1291;60171;-74
2023/01/19 01:31:18;;;;;;;;;;;;;;;1.11;81.13;99585.65;105067;1289;61233;-74
2023/01/19 01:33:43;;;;;;;;;;;;;;;1.10;81.07;99591.92;105115;1291;61336;-73
2023/01/19 01:36:10;;;;;;;;;;;;;;;1.09;81.12;99600.40;105145;1289;61257;-74
2023/01/19 01:38:36;;;;;;;;;;;;;;;1.09;81.09;99607.53;105082;1290;61196;-74
2023/01/19 01:41:01;;;;;;;;;;;;;;;1.08;81.11;99613.98;105019;1291;61243;-74
2023/01/19 01:43:41;;;;;;;;;;;;;;;1.08;81.14;99615.33;105108;1293;61237;-74
2023/01/19 01:46:07;;;;;;;;;;;;;;;1.07;81.17;99620.59;104977;1294;70480;-74
2023/01/19 01:48:33;;;;;;;;;;;;;;;1.07;81.14;99625.34;105129;1288;59815;-74
2023/01/19 01:51:24;;;;;;;;;;;;;;;1.06;81.12;99625.00;105096;1292;61249;-74
2023/01/19 01:54:19;;;;;;;;;;;;;;;1.05;81.15;99627.19;105047;1289;72803;-74
2023/01/19 01:56:51;;;;;;;;;;;;;;;1.03;81.20;99631.63;105002;1289;68673;-73
2023/01/19 01:59:24;;;;;;;;;;;;;;;1.04;81.16;99635.52;105058;1287;73145;-73
2023/01/19 02:04:39;;;;;;;;;;;;;;;1.03;81.09;99643.67;106171;1287;59039;-74
2023/01/19 02:15:17;;;;;;;;;;;;;;;1.04;81.17;99654.00;105214;1288;61234;-74
2023/01/19 02:17:43;;;;;;;;;;;;;;;1.06;81.16;99650.79;105097;1290;61146;-74
2023/01/19 02:20:09;;;;;;;;;;;;;;;1.07;81.19;99655.02;105137;1288;61832;-74
2023/01/19 02:22:38;;;;;;;;;;;;;;;1.05;81.16;99655.02;105094;1291;61286;-74
2023/01/19 02:25:04;;;;;;;;;;;;;;;1.05;81.17;99655.02;105094;1292;71030;-74
2023/01/19 02:27:30;;;;;;;;;;;;;;;1.05;81.22;99656.54;106055;1289;59395;-74
2023/01/19 02:29:56;;;;;;;;;;;;;;;1.06;81.19;99663.51;106119;1287;58989;-74
2023/01/19 02:32:21;;;;;;;;;;;;;;;1.06;81.26;99663.68;106185;1287;59266;-74
2023/01/19 02:34:46;;;;;;;;;;;;;;;1.08;81.23;99664.38;106084;1288;59361;-74
2023/01/19 02:37:13;;;;;;;;;;;;;;;1.09;81.23;99663.70;106122;1289;59471;-74
2023/01/19 02:39:44;;;;;;;;;;;;;;;1.08;81.15;99660.14;106107;1288;59693;-74
2023/01/19 02:42:33;;;;;;;;;;;;;;;1.09;81.17;99658.60;106186;1287;73933;-74
2023/01/19 02:44:59;;;;;;;;;;;;;;;1.10;81.19;99661.17;106175;1287;68218;-74
2023/01/19 02:47:25;;;;;;;;;;;;;;;1.10;81.18;99658.95;106009;1287;254384;-75
2023/01/19 02:49:58;;;;;;;;;;;;;;;1.10;81.22;99659.48;105942;1288;59767;-74
2023/01/19 02:52:24;;;;;;;;;;;;;;;1.12;81.23;99661.18;105103;1288;61292;-74
2023/01/19 02:55:09;;;;;;;;;;;;;;;1.11;81.14;99655.73;105073;1289;75191;-74
2023/01/19 02:57:55;;;;;;;;;;;;;;;1.10;81.23;99657.27;105089;1288;67831;-74
2023/01/19 03:00:39;;;;;;;;;;;;;;;1.09;81.21;99657.25;104822;1288;72034;-74
2023/01/19 03:03:05;;;;;;;;;;;;;;;1.07;81.22;99658.59;105108;1287;61416;-74
2023/01/19 03:05:36;;;;;;;;;;;;;;;1.05;81.29;99663.85;105099;1287;59372;-74
2023/01/19 03:08:22;;;;;;;;;;;;;;;1.03;81.30;99667.92;105123;1290;73692;-74
2023/01/19 03:10:47;;;;;;;;;;;;;;;1.00;81.30;99668.77;104690;1294;68550;-74
2023/01/19 03:13:20;;;;;;;;;;;;;;;0.97;81.17;99668.74;104700;1294;61458;-74
2023/01/19 03:15:48;;;;;;;;;;;;;;;0.92;81.20;99668.88;104659;1294;61130;-74
2023/01/19 03:18:15;;;;;;;;;;;;;;;0.87;81.23;99665.78;104669;1294;61492;-74
2023/01/19 03:20:43;;;;;;;;;;;;;;;0.86;81.31;99667.13;104692;1297;72776;-74
2023/01/19 03:23:09;;;;;;;;;;;;;;;0.88;81.43;99667.32;104602;1295;67396;-74
2023/01/19 03:25:38;;;;;;;;;;;;;;;0.91;81.41;99669.37;104619;1294;70707;-73
2023/01/19 03:28:04;;;;;;;;;;;;;;;0.91;81.38;99666.83;104566;1294;61272;-73
2023/01/19 03:30:32;;;;;;;;;;;;;;;0.91;81.40;99666.15;104494;1298;60735;-73
2023/01/19 03:33:00;;;;;;;;;;;;;;;0.93;81.38;99672.11;104655;1294;73956;-73
2023/01/19 03:35:28;;;;;;;;;;;;;;;0.94;81.39;99679.07;104654;1294;69763;-74
2023/01/19 03:37:56;;;;;;;;;;;;;;;0.94;81.39;99677.37;104551;1294;71725;-74
2023/01/19 03:40:25;;;;;;;;;;;;;;;0.94;81.37;99678.05;104598;1294;61228;-74
2023/01/19 03:42:51;;;;;;;;;;;;;;;0.95;81.40;99673.65;104664;1297;61154;-74
2023/01/19 03:45:17;;;;;;;;;;;;;;;0.95;81.37;99670.59;104556;1294;61405;-74
2023/01/19 03:47:43;;;;;;;;;;;;;;;0.94;81.31;99670.58;104613;1288;61145;-73
2023/01/19 03:50:13;;;;;;;;;;;;;;;0.94;81.36;99678.90;105073;1292;61249;-73
2023/01/19 03:52:38;;;;;;;;;;;;;;;0.94;81.41;99679.58;105032;1288;61205;-73
2023/01/19 03:55:04;;;;;;;;;;;;;;;0.94;81.34;99683.98;105089;1292;61279;-73
2023/01/19 03:57:30;;;;;;;;;;;;;;;0.94;81.44;99690.61;104978;1289;59746;-74
2023/01/19 03:59:55;;;;;;;;;;;;;;;0.95;81.41;99697.58;105073;1288;61300;-74
2023/01/19 04:02:21;;;;;;;;;;;;;;;0.95;81.40;99697.91;105020;1288;61269;-74
2023/01/19 04:04:47;;;;;;;;;;;;;;;0.95;81.41;99698.58;106150;1288;59010;-74
2023/01/19 04:07:12;;;;;;;;;;;;;;;0.94;81.38;99703.67;106236;1288;60059;-74
2023/01/19 04:09:37;;;;;;;;;;;;;;;0.95;81.42;99705.71;106092;1288;59111;-74
2023/01/19 04:12:03;;;;;;;;;;;;;;;0.96;81.43;99714.55;106093;1288;59164;-74
2023/01/19 04:14:29;;;;;;;;;;;;;;;0.96;81.44;99720.33;106173;1288;59304;-74
2023/01/19 04:16:54;;;;;;;;;;;;;;;0.98;81.40;99724.06;105387;1289;60774;-74
2023/01/19 04:19:19;;;;;;;;;;;;;;;0.98;81.37;99725.77;105077;1288;61256;-73
2023/01/19 04:21:47;;;;;;;;;;;;;;;1.00;81.45;99727.30;104996;1288;62528;-73
2023/01/19 04:24:12;;;;;;;;;;;;;;;1.01;81.47;99731.55;105033;1288;61214;-73
2023/01/19 04:26:38;;;;;;;;;;;;;;;1.02;81.44;99734.10;105008;1288;61260;-74
2023/01/19 04:29:04;;;;;;;;;;;;;;;1.01;81.42;99733.42;104983;1288;61270;-74
2023/01/19 04:31:30;;;;;;;;;;;;;;;1.01;81.39;99738.52;106053;1287;59654;-75
2023/01/19 04:33:56;;;;;;;;;;;;;;;1.01;81.44;99742.76;106173;1288;59456;-75
2023/01/19 04:36:21;;;;;;;;;;;;;;;1.02;81.40;99740.89;106216;1294;59721;-74
2023/01/19 04:38:47;;;;;;;;;;;;;;;1.01;81.46;99735.98;106263;1288;75012;-74
2023/01/19 04:41:12;;;;;;;;;;;;;;;1.01;81.46;99737.84;106313;1288;59094;-74
2023/01/19 04:43:38;;;;;;;;;;;;;;;1.02;81.46;99736.48;106270;1288;59318;-75
2023/01/19 04:46:03;;;;;;;;;;;;;;;1.03;81.49;99740.56;106315;1287;59320;-75
2023/01/19 04:48:28;;;;;;;;;;;;;;;1.03;81.44;99740.73;106342;1287;58962;-75
2023/01/19 04:50:54;;;;;;;;;;;;;;;1.03;81.49;99748.37;106305;1287;68379;-75
2023/01/19 04:53:19;;;;;;;;;;;;;;;1.04;81.53;99746.66;106283;1288;59038;-75
2023/01/19 04:55:45;;;;;;;;;;;;;;;1.04;81.46;99741.40;106275;1288;59464;-75
2023/01/19 04:58:10;;;;;;;;;;;;;;;1.06;81.55;99740.05;106234;1288;58749;-75
2023/01/19 05:00:36;;;;;;;;;;;;;;;1.08;81.48;99740.06;106317;1288;59078;-74
2023/01/19 05:03:01;;;;;;;;;;;;;;;1.09;81.49;99738.20;106089;1287;59459;-73
2023/01/19 05:05:27;;;;;;;;;;;;;;;1.11;81.52;99741.96;106064;1288;59451;-73
2023/01/19 05:07:52;;;;;;;;;;;;;;;1.12;81.50;99744.01;106079;1287;58728;-73
2023/01/19 05:10:18;;;;;;;;;;;;;;;1.13;81.53;99750.46;106113;1288;59113;-73
2023/01/19 05:12:43;;;;;;;;;;;;;;;1.16;81.53;99754.55;106124;1288;60293;-73
2023/01/19 05:15:09;;;;;;;;;;;;;;;1.16;81.54;99752.52;106130;1288;59226;-74
2023/01/19 05:17:35;;;;;;;;;;;;;;;1.18;81.44;99754.41;106383;1288;59215;-74
2023/01/19 05:20:00;;;;;;;;;;;;;;;1.20;81.54;99758.33;106171;1288;59075;-74
2023/01/19 05:22:26;;;;;;;;;;;;;;;1.21;81.52;99760.88;106082;1287;59195;-73
2023/01/19 05:24:51;;;;;;;;;;;;;;;1.22;81.50;99758.86;106119;1288;59925;-73
2023/01/19 05:27:16;;;;;;;;;;;;;;;1.22;81.52;99764.79;106162;1288;59360;-73
2023/01/19 05:29:42;;;;;;;;;;;;;;;1.21;81.52;99767.84;106268;1287;59049;-73
2023/01/19 05:32:07;;;;;;;;;;;;;;;1.22;81.53;99764.11;106113;1288;59405;-73
2023/01/19 05:34:33;;;;;;;;;;;;;;;1.22;81.56;99765.30;106296;1287;59042;-73
2023/01/19 05:36:58;;;;;;;;;;;;;;;1.22;81.63;99764.28;106350;1288;59404;-73
2023/01/19 05:39:24;;;;;;;;;;;;;;;1.22;81.65;99761.58;106259;1288;74655;-73
2023/01/19 05:41:50;;;;;;;;;;;;;;;1.23;81.61;99758.02;106135;1288;68629;-74
2023/01/19 05:44:15;;;;;;;;;;;;;;;1.23;81.64;99759.72;106123;1287;59072;-76
2023/01/19 05:46:40;;;;;;;;;;;;;;;1.23;81.63;99759.20;106246;1288;59077;-74
2023/01/19 05:49:06;;;;;;;;;;;;;;;1.23;81.64;99756.98;106278;1287;59767;-74
2023/01/19 05:51:36;;;;;;;;;;;;;;;1.23;81.64;99756.14;106238;1288;59323;-74
2023/01/19 05:54:02;;;;;;;;;;;;;;;1.23;81.66;99756.14;106175;1287;71028;-74
2023/01/19 05:56:27;;;;;;;;;;;;;;;1.23;81.65;99760.05;106220;1288;59188;-74
2023/01/19 05:58:53;;;;;;;;;;;;;;;1.23;81.69;99760.39;106253;1288;59363;-74
2023/01/19 06:01:18;;;;;;;;;;;;;;;1.24;81.70;99767.52;106217;1291;59292;-74
2023/01/19 06:03:43;;;;;;;;;;;;;;;1.24;81.68;99773.46;106310;1288;59344;-74
2023/01/19 06:06:09;;;;;;;;;;;;;;;1.24;81.66;99777.54;106290;1287;59114;-74
2023/01/19 06:08:34;;;;;;;;;;;;;;;1.24;81.67;99784.16;106103;1287;59404;-74
2023/01/19 06:11:00;;;;;;;;;;;;;;;1.25;81.65;99788.58;106260;1287;59452;-74
2023/01/19 06:13:25;;;;;;;;;;;;;;;1.26;81.72;99792.16;106256;1288;59438;-74
2023/01/19 06:16:00;;;;;;;;;;;;;;;1.26;81.73;99792.33;106283;1288;59083;-74
2023/01/19 06:18:26;;;;;;;;;;;;;;;1.27;81.74;99797.95;106081;1288;59477;-74
2023/01/19 06:20:57;;;;;;;;;;;;;;;1.28;81.77;99793.36;106251;1287;59390;-74
2023/01/19 06:23:23;;;;;;;;;;;;;;;1.29;81.68;99794.91;106254;1287;68445;-74
2023/01/19 06:25:49;;;;;;;;;;;;;;;1.30;81.79;99797.11;106221;1288;58674;-74
2023/01/19 06:28:14;;;;;;;;;;;;;;;1.30;81.74;99801.86;106156;1288;58982;-73
2023/01/19 06:30:40;;;;;;;;;;;;;;;1.32;81.80;99804.94;106182;1287;59013;-73
2023/01/19 06:33:05;;;;;;;;;;;;;;;1.34;81.82;99812.27;106158;1288;59110;-73
2023/01/19 06:35:31;;;;;;;;;;;;;;;1.36;81.81;99813.80;106223;1287;59227;-73
2023/01/19 06:37:56;;;;;;;;;;;;;;;1.35;81.77;99815.33;106172;1289;59440;-73
2023/01/19 06:40:21;;;;;;;;;;;;;;;1.36;81.79;99817.70;106030;1288;59597;-73
2023/01/19 06:42:47;;;;;;;;;;;;;;;1.36;81.78;99817.71;106208;1288;59094;-73
2023/01/19 06:45:13;;;;;;;;;;;;;;;1.37;81.84;99824.17;106217;1287;59365;-73
2023/01/19 06:47:38;;;;;;;;;;;;;;;1.38;81.83;99828.93;106246;1288;60183;-73
2023/01/19 06:50:04;;;;;;;;;;;;;;;1.39;81.85;99843.04;106268;1287;59209;-73
2023/01/19 06:52:29;;;;;;;;;;;;;;;1.39;81.78;99851.35;106227;1288;58911;-73
2023/01/19 06:54:54;;;;;;;;;;;;;;;1.39;81.83;99855.61;106249;1288;59017;-74
2023/01/19 06:57:19;;;;;;;;;;;;;;;1.39;81.73;99862.90;106223;1287;59095;-74
2023/01/19 06:59:45;;;;;;;;;;;;;;;1.40;81.77;99868.52;106236;1288;59342;-74
2023/01/19 07:02:10;;;;;;;;;;;;;;;1.40;81.78;99870.55;106206;1286;59206;-74
2023/01/19 07:04:36;;;;;;;;;;;;;;;1.40;81.83;99877.00;106162;1288;59642;-73
2023/01/19 07:07:01;;;;;;;;;;;;;;;1.38;81.83;99879.87;106192;1288;59296;-73
2023/01/19 07:09:27;;;;;;;;;;;;;;;1.39;81.89;99885.48;106121;1287;59674;-73
2023/01/19 07:11:52;;;;;;;;;;;;;;;1.40;81.85;99886.17;106118;1291;75761;-73
2023/01/19 07:14:18;;;;;;;;;;;;;;;1.40;81.84;99887.87;106218;1288;59067;-73
2023/01/19 07:16:43;;;;;;;;;;;;;;;1.37;81.79;99894.13;106223;1288;59175;-73
2023/01/19 07:19:13;;;;;;;;;;;;;;;1.31;81.76;99897.64;106244;1287;59466;-73
2023/01/19 07:21:38;;;;;;;;;;;;;;;1.28;81.89;99895.73;106234;1288;59081;-73
2023/01/19 07:24:04;;;;;;;;;;;;;;;1.28;81.91;99895.05;106057;1288;59794;-73
2023/01/19 07:26:29;;;;;;;;;;;;;;;1.29;81.96;99896.59;106043;1292;59217;-73
2023/01/19 07:28:55;;;;;;;;;;;;;;;1.29;81.90;99898.81;106214;1287;59489;-73
2023/01/19 07:31:20;;;;;;;;;;;;;;;1.30;81.96;99901.53;106275;1287;59133;-73
2023/01/19 07:33:45;;;;;;;;;;;;;;;1.30;81.93;99903.91;106176;1288;73095;-73
2023/01/19 07:36:11;;;;;;;;;;;;;;;1.29;81.83;99910.01;106239;1288;59435;-73
2023/01/19 07:38:36;;;;;;;;;;;;;;;1.28;81.86;99908.46;106189;1287;59524;-73
2023/01/19 07:41:06;;;;;;;;;;;;;;;1.28;81.90;99913.73;106156;1288;59417;-73
2023/01/19 07:43:31;;;;;;;;;;;;;;;1.28;81.89;99917.46;106224;1287;60712;-73
2023/01/19 07:45:57;;;;;;;;;;;;;;;1.28;81.91;99923.92;106188;1288;59067;-74
2023/01/19 07:48:23;;;;;;;;;;;;;;;1.29;81.96;99923.94;106220;1288;59359;-74
2023/01/19 07:50:48;;;;;;;;;;;;;;;1.30;81.94;99925.64;106241;1288;59379;-74
2023/01/19 07:53:14;;;;;;;;;;;;;;;1.31;81.97;99925.83;106220;1287;59132;-73
2023/01/19 07:55:40;;;;;;;;;;;;;;;1.33;82.02;99926.35;106143;1287;59471;-73
2023/01/19 07:58:06;;;;;;;;;;;;;;;1.36;82.05;99928.75;106186;1288;59677;-73
2023/01/19 08:00:31;;;;;;;;;;;;;;;1.38;82.07;99928.44;105982;1288;59226;-73
2023/01/19 08:03:00;;;;;;;;;;;;;;;1.42;82.10;99930.69;106229;1288;59126;-73
2023/01/19 08:05:27;;;;;;;;;;;;;;;1.45;82.10;99926.64;106165;1288;59636;-74
2023/01/19 08:07:55;;;;;;;;;;;;;;;1.49;82.11;99931.27;106211;1287;73232;-74
2023/01/19 08:10:23;;;;;;;;;;;;;;;1.54;82.12;99931.98;106208;1291;67940;-74
2023/01/19 08:12:49;;;;;;;;;;;;;;;1.58;82.18;99932.00;106192;1288;71109;-74
2023/01/19 08:15:18;;;;;;;;;;;;;;;1.63;82.12;99933.91;106018;1289;59363;-74
2023/01/19 08:17:44;;;;;;;;;;;;;;;1.68;82.13;99935.15;106221;1288;59144;-74
2023/01/19 08:20:10;;;;;;;;;;;;;;;1.74;82.18;99938.27;106259;1288;59271;-73
2023/01/19 08:22:36;;;;;;;;;;;;;;;1.78;82.17;99938.63;106224;1287;59597;-73
2023/01/19 08:25:02;;;;;;;;;;;;;;;1.82;82.13;99940.37;105779;1288;59758;-73
2023/01/19 08:27:27;;;;;;;;;;;;;;;1.87;82.19;99941.42;105245;1288;59121;-73
2023/01/19 08:29:53;;;;;;;;;;;;;;;1.89;82.11;99940.77;105280;1288;61382;-73
2023/01/19 08:32:19;;;;;;;;;;;;;;;1.91;82.18;99943.51;105352;1287;61626;-73
2023/01/19 08:34:44;;;;;;;;;;;;;;;1.95;82.18;99939.63;105242;1288;61275;-73
2023/01/19 08:37:10;;;;;;;;;;;;;;;1.97;82.16;99939.98;105062;1288;61459;-73
2023/01/19 08:39:35;;;;;;;;;;;;;;;2.00;82.19;99939.67;105188;1287;59755;-73
2023/01/19 08:42:00;;;;;;;;;;;;;;;2.03;82.19;99943.60;105160;1290;61309;-73
2023/01/19 08:44:26;;;;;;;;;;;;;;;2.06;82.20;99941.76;106108;1287;58904;-73
2023/01/19 08:46:52;;;;;;;;;;;;;;;2.11;82.23;99938.36;106053;1289;59378;-73
2023/01/19 08:49:17;;;;;;;;;;;;;;;2.14;82.18;99940.08;106151;1288;59149;-74
2023/01/19 08:51:45;;;;;;;;;;;;;;;2.20;82.23;99934.00;106144;1288;59090;-74
2023/01/19 08:54:11;;;;;;;;;;;;;;;2.27;82.24;99930.66;106142;1289;59313;-74
2023/01/19 08:56:36;;;;;;;;;;;;;;;2.37;82.25;99930.71;106097;1292;59108;-74
2023/01/19 08:59:01;;;;;;;;;;;;;;;2.47;82.34;99936.73;106128;1288;59353;-74
2023/01/19 09:01:27;;;;;;;;;;;;;;;2.58;82.33;99942.23;105393;1288;62035;-74
2023/01/19 09:03:53;;;;;;;;;;;;;;;2.64;82.21;99944.29;105127;1288;66784;-73
2023/01/19 09:06:18;;;;;;;;;;;;;;;2.65;82.13;99947.36;105195;1288;63409;-73
2023/01/19 09:08:44;;;;;;;;;;;;;;;2.64;82.16;99943.09;105214;1287;59475;-73
2023/01/19 09:11:10;;;;;;;;;;;;;;;2.64;82.11;99943.95;105229;1291;61103;-73
2023/01/19 09:13:36;;;;;;;;;;;;;;;2.63;82.12;99945.30;105185;1288;61302;-73
2023/01/19 09:16:02;;;;;;;;;;;;;;;2.63;82.11;99947.86;105268;1294;59332;-73
2023/01/19 09:18:27;;;;;;;;;;;;;;;2.61;82.04;99952.09;105203;1294;61177;-73
2023/01/19 09:20:56;;;;;;;;;;;;;;;2.59;82.02;99956.52;105251;1290;61614;-73
2023/01/19 09:23:22;;;;;;;;;;;;;;;2.57;82.08;99960.61;105089;1288;75403;-73
2023/01/19 09:25:47;;;;;;;;;;;;;;;2.57;82.15;99963.00;105227;1292;61137;-73
2023/01/19 09:28:14;;;;;;;;;;;;;;;2.57;82.15;99964.02;105121;1290;59666;-73
2023/01/19 09:30:39;;;;;;;;;;;;;;;2.55;82.06;99965.86;105117;1289;59455;-73
2023/01/19 09:33:06;;;;;;;;;;;;;;;2.52;82.02;99967.22;105094;1288;61157;-73
2023/01/19 09:35:35;;;;;;;;;;;;;;;2.52;82.10;99970.27;105170;1291;59781;-73
2023/01/19 09:38:01;;;;;;;;;;;;;;;2.52;82.06;99969.94;105282;1287;67445;-73
2023/01/19 09:40:27;;;;;;;;;;;;;;;2.51;82.01;99972.14;105243;1288;61260;-73
2023/01/19 09:42:55;;;;;;;;;;;;;;;2.48;82.01;99975.19;105121;1288;63793;-73
2023/01/19 09:45:21;;;;;;;;;;;;;;;2.46;82.06;99979.59;105313;1288;59460;-73
2023/01/19 09:47:47;;;;;;;;;;;;;;;2.45;82.08;99981.80;105187;1287;59658;-73
2023/01/19 09:50:19;;;;;;;;;;;;;;;2.42;81.95;99978.89;105280;1288;59857;-73
2023/01/19 09:52:51;;;;;;;;;;;;;;;2.38;81.92;99980.55;105234;1288;72863;-73
2023/01/19 09:55:21;;;;;;;;;;;;;;;2.31;81.93;99979.33;105214;1289;59464;-73
2023/01/19 09:57:46;;;;;;;;;;;;;;;2.28;81.92;99979.13;105192;1287;60923;-73
2023/01/19 10:00:15;;;;;;;;;;;;;;;2.27;81.92;99978.61;105225;1288;61272;-73
2023/01/19 10:02:50;;;;;;;;;;;;;;;2.25;81.99;99976.21;105278;1288;68624;-73
2023/01/19 10:05:18;;;;;;;;;;;;;;;2.23;81.92;99976.37;105208;1288;70612;-73
2023/01/19 10:07:56;;;;;;;;;;;;;;;2.19;81.87;99974.13;105209;1288;61273;-73
2023/01/19 10:10:26;;;;;;;;;;;;;;;2.17;81.90;99973.94;105151;1288;61176;-73
2023/01/19 10:12:52;;;;;;;;;;;;;;;2.16;81.82;99975.13;105023;1288;73985;-73
2023/01/19 10:15:23;;;;;;;;;;;;;;;2.15;81.89;99979.53;105279;1288;60016;-73
2023/01/19 10:18:01;;;;;;;;;;;;;;;2.13;81.85;99977.64;105277;1288;70277;-73
2023/01/19 10:20:34;;;;;;;;;;;;;;;2.10;81.85;99976.95;105197;1288;60932;-73
2023/01/19 10:23:00;;;;;;;;;;;;;;;2.07;81.83;99977.11;105173;1288;61187;-73
2023/01/19 10:25:26;;;;;;;;;;;;;;;2.04;81.89;99974.37;105083;1288;61886;-73
2023/01/19 10:27:51;;;;;;;;;;;;;;;2.02;81.86;99976.73;106149;1291;59677;-73
2023/01/19 10:30:26;;;;;;;;;;;;;;;2.01;81.92;99984.71;105826;1288;59476;-73
2023/01/19 10:32:52;;;;;;;;;;;;;;;2.02;81.93;99990.16;105210;1288;59670;-73
2023/01/19 10:35:25;;;;;;;;;;;;;;;2.03;81.88;99993.23;105201;1288;61243;-73
2023/01/19 10:37:51;;;;;;;;;;;;;;;2.02;81.89;99997.13;105237;1289;73988;-73
2023/01/19 10:40:26;;;;;;;;;;;;;;;2.01;81.84;99993.56;105183;1292;69311;-73
2023/01/19 10:42:51;;;;;;;;;;;;;;;2.01;81.83;99991.01;105203;1287;72735;-73
2023/01/19 10:45:18;;;;;;;;;;;;;;;1.97;81.77;99990.98;105034;1292;61350;-72
2023/01/19 10:47:44;;;;;;;;;;;;;;;1.90;81.61;99993.30;105196;1288;61364;-72
2023/01/19 10:50:42;;;;;;;;;;;;;;;1.79;81.52;99994.55;105090;1288;63842;-72
2023/01/19 10:53:19;;;;;;;;;;;;;;;1.77;81.87;99993.33;104553;1294;67616;-72
2023/01/19 10:55:44;;;;;;;;;;;;;;;1.79;81.88;99994.89;104520;1294;73017;-72
2023/01/19 10:58:27;;;;;;;;;;;;;;;1.82;81.94;99993.05;104573;1299;61281;-72
2023/01/19 11:00:52;;;;;;;;;;;;;;;1.84;81.86;99993.23;104621;1296;61089;-72
2023/01/19 11:03:27;;;;;;;;;;;;;;;1.85;81.82;99994.10;104479;1297;61143;-72
2023/01/19 11:05:52;;;;;;;;;;;;;;;1.85;81.81;99994.94;104463;1296;68227;-72
2023/01/19 11:08:21;;;;;;;;;;;;;;;1.85;81.82;99990.35;104610;1297;59239;-72
2023/01/19 11:10:51;;;;;;;;;;;;;;;1.83;81.77;99988.81;104517;1297;61182;-72
2023/01/19 11:13:16;;;;;;;;;;;;;;;1.83;81.80;99985.41;104503;1294;60150;-72
2023/01/19 11:15:46;;;;;;;;;;;;;;;1.83;81.80;99982.52;104602;1297;59645;-72
2023/01/19 11:18:41;;;;;;;;;;;;;;;1.83;81.72;99979.12;104595;1298;68127;-72
2023/01/19 11:21:09;;;;;;;;;;;;;;;1.81;81.72;99979.11;104102;1300;71739;-72
2023/01/19 11:23:41;;;;;;;;;;;;;;;1.84;81.74;99982.19;104108;1302;59825;-72
2023/01/19 11:26:07;;;;;;;;;;;;;;;1.85;81.68;99974.21;103931;1300;61219;-72
2023/01/19 11:28:35;;;;;;;;;;;;;;;1.81;81.66;99968.06;104278;1297;61199;-72
2023/01/19 11:31:01;;;;;;;;;;;;;;;1.83;81.73;99965.19;104344;1296;67359;-72
2023/01/19 11:33:40;;;;;;;;;;;;;;;1.86;81.79;99965.22;104525;1297;71855;-73
2023/01/19 11:36:13;;;;;;;;;;;;;;;1.88;81.80;99970.16;105568;1299;59378;-74
2023/01/19 11:38:43;;;;;;;;;;;;;;;1.87;81.70;99967.95;105387;1298;59732;-77
2023/01/19 11:41:15;;;;;;;;;;;;;;;1.88;81.69;99971.86;104516;1296;73877;-73
2023/01/19 11:43:41;;;;;;;;;;;;;;;1.92;81.79;99975.48;105572;1297;68669;-73
2023/01/19 11:46:10;;;;;;;;;;;;;;;1.97;81.87;99972.96;105427;1298;59423;-73
2023/01/19 11:48:37;;;;;;;;;;;;;;;2.01;81.70;99970.96;105432;1296;58935;-73
2023/01/19 11:51:04;;;;;;;;;;;;;;;2.05;81.67;99969.79;104612;1296;61242;-73
2023/01/19 11:53:33;;;;;;;;;;;;;;;2.10;81.72;99969.63;104652;1298;74758;-73
2023/01/19 11:56:03;;;;;;;;;;;;;;;2.13;81.54;99966.60;104541;1295;69089;-73
2023/01/19 11:58:29;;;;;;;;;;;;;;;2.10;81.47;99965.38;104962;1291;72179;-73
2023/01/19 12:01:19;;;;;;;;;;;;;;;2.07;81.46;99966.92;105070;1291;61267;-73
2023/01/19 12:03:52;;;;;;;;;;;;;;;2.05;81.47;99961.64;104941;1290;59203;-73
2023/01/19 12:06:37;;;;;;;;;;;;;;;2.03;81.48;99964.00;105063;1290;75000;-73
2023/01/19 12:09:29;;;;;;;;;;;;;;;2.01;81.35;99957.18;105001;1291;68418;-73
2023/01/19 12:12:02;;;;;;;;;;;;;;;2.03;81.58;99951.59;104574;1294;70866;-73
2023/01/19 12:14:33;;;;;;;;;;;;;;;2.03;81.45;99950.06;104604;1295;61204;-73
2023/01/19 12:17:01;;;;;;;;;;;;;;;1.99;81.46;99953.77;104443;1297;61365;-73
2023/01/19 12:19:41;;;;;;;;;;;;;;;1.98;81.42;99955.12;104580;1297;75440;-73
2023/01/19 12:22:11;;;;;;;;;;;;;;;1.96;81.46;99960.73;104553;1296;66738;-73
2023/01/19 12:24:45;;;;;;;;;;;;;;;1.94;81.50;99960.19;104555;1294;72573;-73
2023/01/19 12:27:29;;;;;;;;;;;;;;;1.92;81.46;99960.69;104606;1294;60522;-73
2023/01/19 12:29:54;;;;;;;;;;;;;;;1.92;81.53;99960.52;104558;1296;61171;-73
2023/01/19 12:32:31;;;;;;;;;;;;;;;1.92;81.51;99959.66;104489;1294;61300;-73
2023/01/19 12:34:56;;;;;;;;;;;;;;;1.92;81.46;99958.81;104497;1294;69452;-73
2023/01/19 12:37:41;;;;;;;;;;;;;;;1.90;81.44;99950.98;104482;1296;61430;-73
2023/01/19 12:40:26;;;;;;;;;;;;;;;1.88;81.45;99951.46;104665;1294;59408;-73
2023/01/19 12:43:00;;;;;;;;;;;;;;;1.84;81.27;99950.08;104640;1294;61552;-73
2023/01/19 12:45:30;;;;;;;;;;;;;;;1.81;81.36;99951.92;104599;1295;74651;-73
2023/01/19 12:47:56;;;;;;;;;;;;;;;1.81;81.43;99950.05;104588;1294;68421;-73
2023/01/19 12:50:24;;;;;;;;;;;;;;;1.82;81.37;99948.52;105096;1288;61288;-73
2023/01/19 12:52:57;;;;;;;;;;;;;;;1.83;81.44;99944.45;104976;1294;61242;-75
2023/01/19 12:55:29;;;;;;;;;;;;;;;1.82;81.39;99948.88;105123;1288;61160;-75
2023/01/19 12:58:17;;;;;;;;;;;;;;;1.81;81.34;99948.52;105096;1289;74610;-74
2023/01/19 13:00:43;;;;;;;;;;;;;;;1.81;81.38;99952.60;104589;1299;67652;-75
2023/01/19 13:03:14;;;;;;;;;;;;;;;1.82;81.32;99955.31;104585;1294;61262;-73